Bf Esperanza — V2BR8 — position and weather

sailwx.info

Track history (hours):
 
Tides and Currents Weather Stations Pressure Air Temp Water Temp Dewpoint Dewpoint Depression Visibility Wind Speed Wind Dir Waves Ship Positions

Bf Esperanza

Last reported at 2014-Nov-25 00:29 UTC. Time now 2014-Nov-28 21:46 UTC.
Position N 35°57' W 005°35'.

Length 135 m; draft 9.1 m.

Type: Cargo ship. MMSI: 304907000.

Date/timePositionNaut miles runAvg speedWind from/ knotsBaromVisibWave heightAir tempDewpointWater temp
2014-Nov-25 00:29N 35°57' W 005°35'4 0.2
2014-Nov-24 06:11N 35°56' W 005°30'3 4.4
2014-Nov-24 05:33N 35°59' W 005°28'22113.0
2014-Nov-23 12:30N 37°11' W 001°08'1414.4
2014-Nov-23 11:34N 37°20' W 000°55'1514.6
2014-Nov-23 10:33N 37°29' W 000°41'1414.3
2014-Nov-23 09:33N 37°40' W 000°29'1515.2
2014-Nov-23 08:33N 37°53' W 000°19'9313.3
2014-Nov-23 01:33N 39°26' W 000°18'1 0.4
2014-Nov-22 22:33N 39°27' W 000°19'0 0.0
2014-Nov-22 21:27N 39°27' W 000°19'0 0.0
2014-Nov-22 20:32N 39°27' W 000°19'0 0.0
2014-Nov-22 17:24N 39°27' W 000°19'0 0.0
2014-Nov-22 15:30N 39°27' W 000°19'0 0.0
2014-Nov-22 14:27N 39°27' W 000°19'0 0.0
2014-Nov-22 10:29N 39°27' W 000°19'6 6.5
2014-Nov-22 09:33N 39°27' W 000°11'6319.6
2014-Nov-22 06:20N 40°11' E 000°48'1514.3
2014-Nov-22 05:17N 40°01' E 000°34'1013.6
2014-Nov-22 04:33N 40°08' E 000°43'1313.5
2014-Nov-22 03:33N 40°17' E 000°57'1413.6
2014-Nov-22 02:33N 40°26' E 001°10'1413.8
2014-Nov-22 01:33N 40°35' E 001°23'1414.1
2014-Nov-22 00:33N 40°44' E 001°38'2114.2
2014-Nov-21 23:06N 40°58' E 001°58'814.3
2014-Nov-21 22:33N 41°03' E 002°06'1514.4
2014-Nov-21 21:31N 41°13' E 002°21'2914.2
2014-Nov-21 19:30N 41°31' E 002°51'1414.3
2014-Nov-21 18:32N 41°39' E 003°05'2014.1
2014-Nov-21 17:06N 41°52' E 003°26'1013.5
2014-Nov-21 16:22N 41°59' E 003°35'1413.9
2014-Nov-21 15:21N 42°10' E 003°48'1313.9
2014-Nov-21 14:26N 42°19' E 004°00'1213.9
2014-Nov-21 13:33N 42°27' E 004°12'1414.0
2014-Nov-21 12:32N 42°37' E 004°26'1514.4
2014-Nov-21 11:28N 42°49' E 004°40'1516.0
2014-Nov-21 10:32N 42°59' E 004°54'1212.4
2014-Nov-21 09:33N 43°08' E 005°06'1212.5
2014-Nov-21 08:33N 43°19' E 005°15'4 4.1
2014-Nov-21 07:30N 43°21' E 005°20'0 0.0
2014-Nov-21 06:33N 43°21' E 005°20'0 0.0
2014-Nov-21 05:32N 43°21' E 005°20'0 0.0
2014-Nov-21 04:33N 43°21' E 005°20'0 0.0
2014-Nov-21 03:26N 43°21' E 005°20'0 0.0
2014-Nov-21 01:25N 43°21' E 005°20'0 0.0
2014-Nov-21 00:28N 43°21' E 005°20'0 0.0
2014-Nov-20 23:06N 43°21' E 005°20'0 0.0
2014-Nov-20 22:33N 43°21' E 005°20'0 0.0
2014-Nov-20 21:15N 43°21' E 005°20'0 0.0
2014-Nov-20 20:23N 43°21' E 005°20'0 0.0
2014-Nov-20 19:26N 43°21' E 005°20'0 0.0
2014-Nov-20 18:10N 43°21' E 005°20'0 0.0
2014-Nov-20 17:28N 43°21' E 005°20'0 0.0
2014-Nov-20 16:22N 43°21' E 005°20'2 0.3
2014-Nov-20 11:33N 43°21' E 005°18'1313.1
2014-Nov-20 10:33N 43°10' E 005°08'1914.0
2014-Nov-20 09:11N 42°56' E 004°49'1413.7
2014-Nov-20 08:09N 42°46' E 004°36'1013.9
2014-Nov-20 07:26N 42°39' E 004°27'128 3.6
2014-Nov-18 20:10N 41°20' E 002°12'6 1.2
2014-Nov-18 15:07N 41°20' E 002°20'916.8
2014-Nov-18 14:33N 41°23' E 002°32'1514.2
2014-Nov-18 13:30N 41°32' E 002°49'1615.0
2014-Nov-18 12:27N 41°41' E 003°05'1615.2
2014-Nov-18 11:24N 41°51' E 003°22'1315.0
2014-Nov-18 10:33N 42°04' E 003°26'1515.2
2014-Nov-18 09:33N 42°19' E 003°25'18 2.3
2014-Nov-18 01:24N 42°31' E 003°07'0 0.0
2014-Nov-17 20:30N 42°31' E 003°07'0 0.0
2014-Nov-17 19:29N 42°31' E 003°07'0 0.0
2014-Nov-17 18:29N 42°31' E 003°07'0 0.0
2014-Nov-17 16:30N 42°31' E 003°07'0 0.0
2014-Nov-17 11:32N 42°31' E 003°07'0 0.0
2014-Nov-17 10:32N 42°31' E 003°07'71 5.4
2014-Nov-16 21:33N 41°25' E 002°32'1413.4
2014-Nov-16 20:33N 41°15' E 002°21'1413.6
2014-Nov-16 19:33N 41°04' E 002°11'1413.8
2014-Nov-16 18:33N 40°52' E 002°02'1414.0
2014-Nov-16 17:33N 40°38' E 001°57'2114.2
2014-Nov-16 16:05N 40°18' E 001°49'814.7
2014-Nov-16 15:33N 40°11' E 001°44'1515.0
2014-Nov-16 14:33N 39°59' E 001°34'1716.7
2014-Nov-16 13:33N 39°45' E 001°22'12816.0
2014-Nov-16 05:33N 37°58' W 000°10'1716.7
2014-Nov-16 04:33N 37°45' W 000°22'25316.4
2014-Nov-15 13:05N 35°60' W 005°10'1120.1
2014-Nov-15 12:34N 35°58' W 005°22'  
Track history (hours):
 
Tides and Currents Weather Stations Pressure Air Temp Water Temp Dewpoint Dewpoint Depression Visibility Wind Speed Wind Dir Waves Ship Positions

Bf Esperanza

Last reported at 2014-Nov-25 00:29 UTC. Time now 2014-Nov-28 21:46 UTC.
Position N 35°57' W 005°35'.

Length 135 m; draft 9.1 m.

Type: Cargo ship. MMSI: 304907000.

Date/timePositionNaut miles runAvg speedWind from/ knotsBaromVisibWave heightAir tempDewpointWater temp
2014-Nov-25 00:29N 35°57' W 005°35'4 0.2
2014-Nov-24 06:11N 35°56' W 005°30'3 4.4
2014-Nov-24 05:33N 35°59' W 005°28'22113.0
2014-Nov-23 12:30N 37°11' W 001°08'1414.4
2014-Nov-23 11:34N 37°20' W 000°55'1514.6
2014-Nov-23 10:33N 37°29' W 000°41'1414.3
2014-Nov-23 09:33N 37°40' W 000°29'1515.2
2014-Nov-23 08:33N 37°53' W 000°19'9313.3
2014-Nov-23 01:33N 39°26' W 000°18'1 0.4
2014-Nov-22 22:33N 39°27' W 000°19'0 0.0
2014-Nov-22 21:27N 39°27' W 000°19'0 0.0
2014-Nov-22 20:32N 39°27' W 000°19'0 0.0
2014-Nov-22 17:24N 39°27' W 000°19'0 0.0
2014-Nov-22 15:30N 39°27' W 000°19'0 0.0
2014-Nov-22 14:27N 39°27' W 000°19'0 0.0
2014-Nov-22 10:29N 39°27' W 000°19'6 6.5
2014-Nov-22 09:33N 39°27' W 000°11'6319.6
2014-Nov-22 06:20N 40°11' E 000°48'1514.3
2014-Nov-22 05:17N 40°01' E 000°34'1013.6
2014-Nov-22 04:33N 40°08' E 000°43'1313.5
2014-Nov-22 03:33N 40°17' E 000°57'1413.6
2014-Nov-22 02:33N 40°26' E 001°10'1413.8
2014-Nov-22 01:33N 40°35' E 001°23'1414.1
2014-Nov-22 00:33N 40°44' E 001°38'2114.2
2014-Nov-21 23:06N 40°58' E 001°58'814.3
2014-Nov-21 22:33N 41°03' E 002°06'1514.4
2014-Nov-21 21:31N 41°13' E 002°21'2914.2
2014-Nov-21 19:30N 41°31' E 002°51'1414.3
2014-Nov-21 18:32N 41°39' E 003°05'2014.1
2014-Nov-21 17:06N 41°52' E 003°26'1013.5
2014-Nov-21 16:22N 41°59' E 003°35'1413.9
2014-Nov-21 15:21N 42°10' E 003°48'1313.9
2014-Nov-21 14:26N 42°19' E 004°00'1213.9
2014-Nov-21 13:33N 42°27' E 004°12'1414.0
2014-Nov-21 12:32N 42°37' E 004°26'1514.4
2014-Nov-21 11:28N 42°49' E 004°40'1516.0
2014-Nov-21 10:32N 42°59' E 004°54'1212.4
2014-Nov-21 09:33N 43°08' E 005°06'1212.5
2014-Nov-21 08:33N 43°19' E 005°15'4 4.1
2014-Nov-21 07:30N 43°21' E 005°20'0 0.0
2014-Nov-21 06:33N 43°21' E 005°20'0 0.0
2014-Nov-21 05:32N 43°21' E 005°20'0 0.0
2014-Nov-21 04:33N 43°21' E 005°20'0 0.0
2014-Nov-21 03:26N 43°21' E 005°20'0 0.0
2014-Nov-21 01:25N 43°21' E 005°20'0 0.0
2014-Nov-21 00:28N 43°21' E 005°20'0 0.0
2014-Nov-20 23:06N 43°21' E 005°20'0 0.0
2014-Nov-20 22:33N 43°21' E 005°20'0 0.0
2014-Nov-20 21:15N 43°21' E 005°20'0 0.0
2014-Nov-20 20:23N 43°21' E 005°20'0 0.0
2014-Nov-20 19:26N 43°21' E 005°20'0 0.0
2014-Nov-20 18:10N 43°21' E 005°20'0 0.0
2014-Nov-20 17:28N 43°21' E 005°20'0 0.0
2014-Nov-20 16:22N 43°21' E 005°20'2 0.3
2014-Nov-20 11:33N 43°21' E 005°18'1313.1
2014-Nov-20 10:33N 43°10' E 005°08'1914.0
2014-Nov-20 09:11N 42°56' E 004°49'1413.7
2014-Nov-20 08:09N 42°46' E 004°36'1013.9
2014-Nov-20 07:26N 42°39' E 004°27'128 3.6
2014-Nov-18 20:10N 41°20' E 002°12'6 1.2
2014-Nov-18 15:07N 41°20' E 002°20'916.8
2014-Nov-18 14:33N 41°23' E 002°32'1514.2
2014-Nov-18 13:30N 41°32' E 002°49'1615.0
2014-Nov-18 12:27N 41°41' E 003°05'1615.2
2014-Nov-18 11:24N 41°51' E 003°22'1315.0
2014-Nov-18 10:33N 42°04' E 003°26'1515.2
2014-Nov-18 09:33N 42°19' E 003°25'18 2.3
2014-Nov-18 01:24N 42°31' E 003°07'0 0.0
2014-Nov-17 20:30N 42°31' E 003°07'0 0.0
2014-Nov-17 19:29N 42°31' E 003°07'0 0.0
2014-Nov-17 18:29N 42°31' E 003°07'0 0.0
2014-Nov-17 16:30N 42°31' E 003°07'0 0.0
2014-Nov-17 11:32N 42°31' E 003°07'0 0.0
2014-Nov-17 10:32N 42°31' E 003°07'71 5.4
2014-Nov-16 21:33N 41°25' E 002°32'1413.4
2014-Nov-16 20:33N 41°15' E 002°21'1413.6
2014-Nov-16 19:33N 41°04' E 002°11'1413.8
2014-Nov-16 18:33N 40°52' E 002°02'1414.0
2014-Nov-16 17:33N 40°38' E 001°57'2114.2
2014-Nov-16 16:05N 40°18' E 001°49'814.7
2014-Nov-16 15:33N 40°11' E 001°44'1515.0
2014-Nov-16 14:33N 39°59' E 001°34'1716.7
2014-Nov-16 13:33N 39°45' E 001°22'12816.0
2014-Nov-16 05:33N 37°58' W 000°10'1716.7
2014-Nov-16 04:33N 37°45' W 000°22'25316.4
2014-Nov-15 13:05N 35°60' W 005°10'1120.1
2014-Nov-15 12:34N 35°58' W 005°22'  

Dump ship's entire track history